sensor_id;sensor_type;location;lat;lon;timestamp;P1;durP1;ratioP1;P2;durP2;ratioP2
73126;SDS011;61316;47.852;11.410;2022-09-09T00:04:40;1.70;;;0.60;;
73126;SDS011;61316;47.852;11.410;2022-09-09T00:07:07;2.70;;;0.80;;
73126;SDS011;61316;47.852;11.410;2022-09-09T00:09:45;1.63;;;0.70;;
73126;SDS011;61316;47.852;11.410;2022-09-09T00:12:13;0.95;;;0.60;;
73126;SDS011;61316;47.852;11.410;2022-09-09T00:14:42;2.00;;;0.70;;
73126;SDS011;61316;47.852;11.410;2022-09-09T00:17:12;1.15;;;0.75;;
73126;SDS011;61316;47.852;11.410;2022-09-09T00:19:41;1.50;;;0.80;;
73126;SDS011;61316;47.852;11.410;2022-09-09T00:24:43;1.60;;;0.85;;
73126;SDS011;61316;47.852;11.410;2022-09-09T00:27:16;1.45;;;0.75;;
73126;SDS011;61316;47.852;11.410;2022-09-09T00:29:43;1.65;;;0.70;;
73126;SDS011;61316;47.852;11.410;2022-09-09T00:32:14;1.38;;;0.93;;
73126;SDS011;61316;47.852;11.410;2022-09-09T00:34:48;1.45;;;0.80;;
73126;SDS011;61316;47.852;11.410;2022-09-09T00:37:14;2.20;;;0.80;;
73126;SDS011;61316;47.852;11.410;2022-09-09T00:39:44;2.13;;;0.70;;
73126;SDS011;61316;47.852;11.410;2022-09-09T00:44:38;1.00;;;0.80;;
73126;SDS011;61316;47.852;11.410;2022-09-09T00:52:27;1.20;;;0.80;;
73126;SDS011;61316;47.852;11.410;2022-09-09T00:55:03;1.65;;;0.70;;
73126;SDS011;61316;47.852;11.410;2022-09-09T00:57:30;0.80;;;0.70;;
73126;SDS011;61316;47.852;11.410;2022-09-09T01:04:50;1.45;;;0.80;;
73126;SDS011;61316;47.852;11.410;2022-09-09T01:07:16;1.00;;;0.77;;
73126;SDS011;61316;47.852;11.410;2022-09-09T01:09:45;2.47;;;1.03;;
73126;SDS011;61316;47.852;11.410;2022-09-09T01:12:23;0.70;;;0.70;;
73126;SDS011;61316;47.852;11.410;2022-09-09T01:14:50;1.42;;;0.88;;
73126;SDS011;61316;47.852;11.410;2022-09-09T01:20:22;2.55;;;0.90;;
73126;SDS011;61316;47.852;11.410;2022-09-09T01:22:52;3.25;;;0.90;;
73126;SDS011;61316;47.852;11.410;2022-09-09T01:27:51;1.10;;;0.82;;
73126;SDS011;61316;47.852;11.410;2022-09-09T01:30:17;1.20;;;0.70;;
73126;SDS011;61316;47.852;11.410;2022-09-09T01:35:13;1.90;;;0.80;;
73126;SDS011;61316;47.852;11.410;2022-09-09T01:37:40;1.80;;;0.70;;
73126;SDS011;61316;47.852;11.410;2022-09-09T01:40:05;1.23;;;0.67;;
73126;SDS011;61316;47.852;11.410;2022-09-09T01:42:30;1.87;;;0.80;;
73126;SDS011;61316;47.852;11.410;2022-09-09T01:44:55;2.30;;;0.70;;
73126;SDS011;61316;47.852;11.410;2022-09-09T01:47:21;0.80;;;0.70;;
73126;SDS011;61316;47.852;11.410;2022-09-09T01:49:46;1.93;;;0.70;;
73126;SDS011;61316;47.852;11.410;2022-09-09T01:52:11;1.30;;;0.80;;
73126;SDS011;61316;47.852;11.410;2022-09-09T01:54:36;0.93;;;0.63;;
73126;SDS011;61316;47.852;11.410;2022-09-09T01:59:50;1.07;;;0.70;;
73126;SDS011;61316;47.852;11.410;2022-09-09T02:04:50;2.08;;;0.73;;
73126;SDS011;61316;47.852;11.410;2022-09-09T02:10:28;1.65;;;0.73;;
73126;SDS011;61316;47.852;11.410;2022-09-09T02:12:47;1.20;;;0.70;;
73126;SDS011;61316;47.852;11.410;2022-09-09T02:15:30;1.60;;;0.70;;
73126;SDS011;61316;47.852;11.410;2022-09-09T02:17:57;1.75;;;0.70;;
73126;SDS011;61316;47.852;11.410;2022-09-09T02:20:23;1.20;;;0.80;;
73126;SDS011;61316;47.852;11.410;2022-09-09T02:22:50;0.85;;;0.63;;
73126;SDS011;61316;47.852;11.410;2022-09-09T02:25:17;0.73;;;0.70;;
73126;SDS011;61316;47.852;11.410;2022-09-09T02:27:43;1.65;;;0.70;;
73126;SDS011;61316;47.852;11.410;2022-09-09T02:30:10;0.75;;;0.60;;
73126;SDS011;61316;47.852;11.410;2022-09-09T02:32:35;1.20;;;0.70;;
73126;SDS011;61316;47.852;11.410;2022-09-09T02:35:02;1.20;;;0.60;;
73126;SDS011;61316;47.852;11.410;2022-09-09T02:37:32;0.50;;;0.50;;
73126;SDS011;61316;47.852;11.410;2022-09-09T02:40:00;0.60;;;0.60;;
73126;SDS011;61316;47.852;11.410;2022-09-09T02:42:25;0.70;;;0.60;;
73126;SDS011;61316;47.852;11.410;2022-09-09T02:44:51;1.20;;;0.60;;
73126;SDS011;61316;47.852;11.410;2022-09-09T02:52:32;1.00;;;0.60;;
73126;SDS011;61316;47.852;11.410;2022-09-09T02:55:07;0.88;;;0.60;;
73126;SDS011;61316;47.852;11.410;2022-09-09T02:57:34;1.10;;;0.70;;
73126;SDS011;61316;47.852;11.410;2022-09-09T03:00:01;1.20;;;0.70;;
73126;SDS011;61316;47.852;11.410;2022-09-09T03:02:26;2.10;;;0.70;;
73126;SDS011;61316;47.852;11.410;2022-09-09T03:04:51;0.80;;;0.60;;
73126;SDS011;61316;47.852;11.410;2022-09-09T03:07:17;0.90;;;0.60;;
73126;SDS011;61316;47.852;11.410;2022-09-09T03:09:43;1.60;;;0.75;;
73126;SDS011;61316;47.852;11.410;2022-09-09T03:12:09;2.17;;;0.60;;
73126;SDS011;61316;47.852;11.410;2022-09-09T03:14:36;1.25;;;0.70;;
73126;SDS011;61316;47.852;11.410;2022-09-09T03:17:01;0.98;;;0.70;;
73126;SDS011;61316;47.852;11.410;2022-09-09T03:19:27;1.15;;;0.70;;
73126;SDS011;61316;47.852;11.410;2022-09-09T03:21:52;0.90;;;0.70;;
73126;SDS011;61316;47.852;11.410;2022-09-09T03:24:18;1.20;;;0.70;;
73126;SDS011;61316;47.852;11.410;2022-09-09T03:26:43;0.97;;;0.70;;
73126;SDS011;61316;47.852;11.410;2022-09-09T03:29:10;0.90;;;0.73;;
73126;SDS011;61316;47.852;11.410;2022-09-09T03:31:37;1.77;;;0.80;;
73126;SDS011;61316;47.852;11.410;2022-09-09T03:34:02;1.10;;;0.90;;
73126;SDS011;61316;47.852;11.410;2022-09-09T03:36:27;1.73;;;0.70;;
73126;SDS011;61316;47.852;11.410;2022-09-09T03:38:53;1.00;;;0.80;;
73126;SDS011;61316;47.852;11.410;2022-09-09T03:41:19;0.90;;;0.70;;
73126;SDS011;61316;47.852;11.410;2022-09-09T03:43:48;1.05;;;0.80;;
73126;SDS011;61316;47.852;11.410;2022-09-09T03:46:13;1.50;;;0.90;;
73126;SDS011;61316;47.852;11.410;2022-09-09T03:48:39;1.20;;;0.80;;
73126;SDS011;61316;47.852;11.410;2022-09-09T03:51:04;0.90;;;0.77;;
73126;SDS011;61316;47.852;11.410;2022-09-09T03:53:29;1.42;;;0.70;;
73126;SDS011;61316;47.852;11.410;2022-09-09T03:55:55;1.00;;;0.90;;
73126;SDS011;61316;47.852;11.410;2022-09-09T03:58:21;0.77;;;0.77;;
73126;SDS011;61316;47.852;11.410;2022-09-09T04:01:02;1.10;;;0.82;;
73126;SDS011;61316;47.852;11.410;2022-09-09T04:03:28;1.25;;;0.90;;
73126;SDS011;61316;47.852;11.410;2022-09-09T04:05:54;2.00;;;1.00;;
73126;SDS011;61316;47.852;11.410;2022-09-09T04:08:20;0.98;;;0.73;;
73126;SDS011;61316;47.852;11.410;2022-09-09T04:10:46;0.95;;;0.70;;
73126;SDS011;61316;47.852;11.410;2022-09-09T04:13:12;1.70;;;0.90;;
73126;SDS011;61316;47.852;11.410;2022-09-09T04:15:38;0.88;;;0.80;;
73126;SDS011;61316;47.852;11.410;2022-09-09T04:18:03;1.08;;;0.80;;
73126;SDS011;61316;47.852;11.410;2022-09-09T04:20:29;1.00;;;0.90;;
73126;SDS011;61316;47.852;11.410;2022-09-09T04:22:55;1.40;;;0.70;;
73126;SDS011;61316;47.852;11.410;2022-09-09T04:25:20;1.40;;;0.70;;
73126;SDS011;61316;47.852;11.410;2022-09-09T04:27:45;1.50;;;0.80;;
73126;SDS011;61316;47.852;11.410;2022-09-09T04:30:10;1.00;;;0.80;;
73126;SDS011;61316;47.852;11.410;2022-09-09T04:32:37;1.20;;;0.77;;
73126;SDS011;61316;47.852;11.410;2022-09-09T04:35:02;1.03;;;0.73;;
73126;SDS011;61316;47.852;11.410;2022-09-09T04:37:27;1.40;;;0.90;;
73126;SDS011;61316;47.852;11.410;2022-09-09T04:39:53;1.10;;;0.80;;
73126;SDS011;61316;47.852;11.410;2022-09-09T04:42:18;0.80;;;0.80;;
73126;SDS011;61316;47.852;11.410;2022-09-09T04:44:44;1.30;;;0.70;;
73126;SDS011;61316;47.852;11.410;2022-09-09T04:47:10;0.70;;;0.70;;
73126;SDS011;61316;47.852;11.410;2022-09-09T04:49:35;2.63;;;0.77;;
73126;SDS011;61316;47.852;11.410;2022-09-09T04:52:01;0.93;;;0.80;;
73126;SDS011;61316;47.852;11.410;2022-09-09T04:54:27;1.05;;;0.95;;
73126;SDS011;61316;47.852;11.410;2022-09-09T04:56:53;0.80;;;0.80;;
73126;SDS011;61316;47.852;11.410;2022-09-09T04:59:18;0.70;;;0.70;;
73126;SDS011;61316;47.852;11.410;2022-09-09T05:01:43;1.17;;;0.90;;
73126;SDS011;61316;47.852;11.410;2022-09-09T05:04:09;1.33;;;0.60;;
73126;SDS011;61316;47.852;11.410;2022-09-09T05:06:34;0.83;;;0.70;;
73126;SDS011;61316;47.852;11.410;2022-09-09T05:09:01;1.25;;;0.80;;
73126;SDS011;61316;47.852;11.410;2022-09-09T05:11:27;1.17;;;0.73;;
73126;SDS011;61316;47.852;11.410;2022-09-09T05:13:52;0.85;;;0.80;;
73126;SDS011;61316;47.852;11.410;2022-09-09T05:16:18;1.00;;;0.80;;
73126;SDS011;61316;47.852;11.410;2022-09-09T05:18:44;1.30;;;0.90;;
73126;SDS011;61316;47.852;11.410;2022-09-09T05:21:10;0.70;;;0.70;;
73126;SDS011;61316;47.852;11.410;2022-09-09T05:23:35;0.88;;;0.70;;
73126;SDS011;61316;47.852;11.410;2022-09-09T05:26:01;1.53;;;0.83;;
73126;SDS011;61316;47.852;11.410;2022-09-09T05:28:26;1.63;;;0.70;;
73126;SDS011;61316;47.852;11.410;2022-09-09T05:30:55;0.85;;;0.80;;
73126;SDS011;61316;47.852;11.410;2022-09-09T05:33:21;1.10;;;0.70;;
73126;SDS011;61316;47.852;11.410;2022-09-09T05:35:46;0.70;;;0.70;;
73126;SDS011;61316;47.852;11.410;2022-09-09T05:38:11;0.70;;;0.70;;
73126;SDS011;61316;47.852;11.410;2022-09-09T05:40:36;1.00;;;0.70;;
73126;SDS011;61316;47.852;11.410;2022-09-09T05:43:01;0.93;;;0.63;;
73126;SDS011;61316;47.852;11.410;2022-09-09T05:45:26;0.90;;;0.70;;
73126;SDS011;61316;47.852;11.410;2022-09-09T05:47:52;1.10;;;0.70;;
73126;SDS011;61316;47.852;11.410;2022-09-09T05:50:18;1.00;;;0.90;;
73126;SDS011;61316;47.852;11.410;2022-09-09T05:52:43;1.10;;;0.80;;
73126;SDS011;61316;47.852;11.410;2022-09-09T05:55:09;1.55;;;0.70;;
73126;SDS011;61316;47.852;11.410;2022-09-09T05:57:34;1.37;;;0.90;;
73126;SDS011;61316;47.852;11.410;2022-09-09T05:59:59;1.50;;;0.73;;
73126;SDS011;61316;47.852;11.410;2022-09-09T06:02:25;0.88;;;0.70;;
73126;SDS011;61316;47.852;11.410;2022-09-09T06:04:50;1.57;;;0.70;;
73126;SDS011;61316;47.852;11.410;2022-09-09T06:07:15;1.77;;;0.90;;
73126;SDS011;61316;47.852;11.410;2022-09-09T06:09:41;2.80;;;0.82;;
73126;SDS011;61316;47.852;11.410;2022-09-09T06:12:06;2.03;;;0.80;;
73126;SDS011;61316;47.852;11.410;2022-09-09T06:14:32;2.70;;;0.80;;
73126;SDS011;61316;47.852;11.410;2022-09-09T06:16:57;1.63;;;0.80;;
73126;SDS011;61316;47.852;11.410;2022-09-09T06:19:22;2.07;;;0.80;;
73126;SDS011;61316;47.852;11.410;2022-09-09T06:21:49;2.70;;;0.90;;
73126;SDS011;61316;47.852;11.410;2022-09-09T06:24:16;1.10;;;0.80;;
73126;SDS011;61316;47.852;11.410;2022-09-09T06:26:44;2.33;;;0.95;;
73126;SDS011;61316;47.852;11.410;2022-09-09T06:29:10;9.75;;;1.20;;
73126;SDS011;61316;47.852;11.410;2022-09-09T06:31:35;5.37;;;1.00;;
73126;SDS011;61316;47.852;11.410;2022-09-09T06:34:02;4.00;;;1.00;;
73126;SDS011;61316;47.852;11.410;2022-09-09T06:36:28;3.42;;;1.10;;
73126;SDS011;61316;47.852;11.410;2022-09-09T06:38:53;2.60;;;1.00;;
73126;SDS011;61316;47.852;11.410;2022-09-09T06:41:19;1.70;;;0.77;;
73126;SDS011;61316;47.852;11.410;2022-09-09T06:43:45;1.38;;;0.90;;
73126;SDS011;61316;47.852;11.410;2022-09-09T06:46:14;2.00;;;1.00;;
73126;SDS011;61316;47.852;11.410;2022-09-09T06:48:40;1.20;;;0.90;;
73126;SDS011;61316;47.852;11.410;2022-09-09T06:51:19;4.32;;;1.00;;
73126;SDS011;61316;47.852;11.410;2022-09-09T06:53:49;1.35;;;0.80;;
73126;SDS011;61316;47.852;11.410;2022-09-09T06:56:22;2.47;;;0.80;;
73126;SDS011;61316;47.852;11.410;2022-09-09T06:58:48;1.40;;;0.80;;
73126;SDS011;61316;47.852;11.410;2022-09-09T07:01:18;1.33;;;1.05;;
73126;SDS011;61316;47.852;11.410;2022-09-09T07:03:48;1.58;;;0.80;;
73126;SDS011;61316;47.852;11.410;2022-09-09T07:06:14;1.40;;;0.90;;
73126;SDS011;61316;47.852;11.410;2022-09-09T07:08:39;2.78;;;0.98;;
73126;SDS011;61316;47.852;11.410;2022-09-09T07:11:05;1.60;;;0.90;;
73126;SDS011;61316;47.852;11.410;2022-09-09T07:13:31;1.05;;;0.90;;
73126;SDS011;61316;47.852;11.410;2022-09-09T07:16:07;1.00;;;0.80;;
73126;SDS011;61316;47.852;11.410;2022-09-09T07:18:32;1.10;;;0.93;;
73126;SDS011;61316;47.852;11.410;2022-09-09T07:20:58;3.20;;;1.00;;
73126;SDS011;61316;47.852;11.410;2022-09-09T07:23:24;2.65;;;0.95;;
73126;SDS011;61316;47.852;11.410;2022-09-09T07:25:49;2.10;;;0.90;;
73126;SDS011;61316;47.852;11.410;2022-09-09T07:28:15;1.30;;;0.87;;
73126;SDS011;61316;47.852;11.410;2022-09-09T07:30:40;2.95;;;1.30;;
73126;SDS011;61316;47.852;11.410;2022-09-09T07:33:06;4.57;;;1.42;;
73126;SDS011;61316;47.852;11.410;2022-09-09T07:35:31;8.27;;;1.60;;
73126;SDS011;61316;47.852;11.410;2022-09-09T07:37:57;5.05;;;1.88;;
73126;SDS011;61316;47.852;11.410;2022-09-09T07:40:23;5.13;;;1.98;;
73126;SDS011;61316;47.852;11.410;2022-09-09T07:42:48;6.47;;;1.80;;
73126;SDS011;61316;47.852;11.410;2022-09-09T07:45:13;3.90;;;1.70;;
73126;SDS011;61316;47.852;11.410;2022-09-09T07:47:39;4.13;;;1.52;;
73126;SDS011;61316;47.852;11.410;2022-09-09T07:50:04;3.78;;;1.65;;
73126;SDS011;61316;47.852;11.410;2022-09-09T07:52:29;7.00;;;1.70;;
73126;SDS011;61316;47.852;11.410;2022-09-09T07:54:55;6.73;;;1.50;;
73126;SDS011;61316;47.852;11.410;2022-09-09T07:57:21;6.80;;;1.50;;
73126;SDS011;61316;47.852;11.410;2022-09-09T07:59:46;3.77;;;1.57;;
73126;SDS011;61316;47.852;11.410;2022-09-09T08:02:11;5.03;;;1.53;;
73126;SDS011;61316;47.852;11.410;2022-09-09T08:04:36;3.00;;;1.40;;
73126;SDS011;61316;47.852;11.410;2022-09-09T08:07:02;4.30;;;1.50;;
73126;SDS011;61316;47.852;11.410;2022-09-09T08:09:28;3.95;;;1.35;;
73126;SDS011;61316;47.852;11.410;2022-09-09T08:11:54;4.72;;;1.20;;
73126;SDS011;61316;47.852;11.410;2022-09-09T08:14:19;3.65;;;1.40;;
73126;SDS011;61316;47.852;11.410;2022-09-09T08:16:46;4.30;;;1.60;;
73126;SDS011;61316;47.852;11.410;2022-09-09T08:19:11;3.00;;;1.30;;
73126;SDS011;61316;47.852;11.410;2022-09-09T08:21:37;3.50;;;1.40;;
73126;SDS011;61316;47.852;11.410;2022-09-09T08:24:04;3.47;;;1.40;;
73126;SDS011;61316;47.852;11.410;2022-09-09T08:26:33;1.70;;;1.10;;
73126;SDS011;61316;47.852;11.410;2022-09-09T08:28:59;2.53;;;1.20;;
73126;SDS011;61316;47.852;11.410;2022-09-09T08:33:50;2.88;;;1.40;;
73126;SDS011;61316;47.852;11.410;2022-09-09T08:36:18;2.77;;;1.40;;
73126;SDS011;61316;47.852;11.410;2022-09-09T08:38:46;2.55;;;1.30;;
73126;SDS011;61316;47.852;11.410;2022-09-09T08:44:06;3.15;;;1.10;;
73126;SDS011;61316;47.852;11.410;2022-09-09T08:46:41;4.07;;;1.75;;
73126;SDS011;61316;47.852;11.410;2022-09-09T08:51:53;2.30;;;1.00;;
73126;SDS011;61316;47.852;11.410;2022-09-09T08:54:20;2.50;;;1.15;;
73126;SDS011;61316;47.852;11.410;2022-09-09T08:56:45;1.60;;;1.00;;
73126;SDS011;61316;47.852;11.410;2022-09-09T08:59:11;3.00;;;1.10;;
73126;SDS011;61316;47.852;11.410;2022-09-09T09:06:58;2.78;;;0.93;;
73126;SDS011;61316;47.852;11.410;2022-09-09T09:11:57;3.40;;;0.95;;
73126;SDS011;61316;47.852;11.410;2022-09-09T09:14:29;1.95;;;1.17;;
73126;SDS011;61316;47.852;11.410;2022-09-09T09:17:11;1.58;;;0.80;;
73126;SDS011;61316;47.852;11.410;2022-09-09T09:19:38;6.57;;;1.10;;
73126;SDS011;61316;47.852;11.410;2022-09-09T09:27:43;4.35;;;1.02;;
73126;SDS011;61316;47.852;11.410;2022-09-09T09:30:10;2.13;;;1.00;;
73126;SDS011;61316;47.852;11.410;2022-09-09T09:32:37;1.17;;;0.80;;
73126;SDS011;61316;47.852;11.410;2022-09-09T09:35:06;1.90;;;1.00;;
73126;SDS011;61316;47.852;11.410;2022-09-09T09:37:34;2.03;;;0.98;;
73126;SDS011;61316;47.852;11.410;2022-09-09T09:42:34;2.00;;;0.80;;
73126;SDS011;61316;47.852;11.410;2022-09-09T09:47:43;1.60;;;0.90;;
73126;SDS011;61316;47.852;11.410;2022-09-09T09:50:15;1.20;;;0.83;;
73126;SDS011;61316;47.852;11.410;2022-09-09T09:52:41;2.05;;;0.90;;
73126;SDS011;61316;47.852;11.410;2022-09-09T09:55:11;1.70;;;0.80;;
73126;SDS011;61316;47.852;11.410;2022-09-09T09:57:38;1.05;;;0.80;;
73126;SDS011;61316;47.852;11.410;2022-09-09T10:02:42;3.03;;;0.97;;
73126;SDS011;61316;47.852;11.410;2022-09-09T10:05:13;2.97;;;0.90;;
73126;SDS011;61316;47.852;11.410;2022-09-09T10:07:39;1.52;;;0.80;;
73126;SDS011;61316;47.852;11.410;2022-09-09T10:10:04;1.50;;;0.80;;
73126;SDS011;61316;47.852;11.410;2022-09-09T10:12:36;1.25;;;0.77;;
73126;SDS011;61316;47.852;11.410;2022-09-09T10:15:41;0.70;;;0.70;;
73126;SDS011;61316;47.852;11.410;2022-09-09T10:36:00;3.25;;;0.82;;
73126;SDS011;61316;47.852;11.410;2022-09-09T10:38:40;2.10;;;1.00;;
73126;SDS011;61316;47.852;11.410;2022-09-09T10:41:13;1.80;;;0.85;;
73126;SDS011;61316;47.852;11.410;2022-09-09T10:51:23;0.98;;;0.70;;
73126;SDS011;61316;47.852;11.410;2022-09-09T10:54:02;1.27;;;0.70;;
73126;SDS011;61316;47.852;11.410;2022-09-09T10:56:30;0.85;;;0.60;;
73126;SDS011;61316;47.852;11.410;2022-09-09T10:59:18;1.50;;;0.70;;
73126;SDS011;61316;47.852;11.410;2022-09-09T11:01:59;1.27;;;0.63;;
73126;SDS011;61316;47.852;11.410;2022-09-09T11:04:35;3.00;;;1.08;;
73126;SDS011;61316;47.852;11.410;2022-09-09T11:07:05;1.38;;;0.80;;
73126;SDS011;61316;47.852;11.410;2022-09-09T11:09:32;1.20;;;0.80;;
73126;SDS011;61316;47.852;11.410;2022-09-09T11:11:58;1.42;;;0.80;;
73126;SDS011;61316;47.852;11.410;2022-09-09T11:14:37;1.10;;;0.90;;
73126;SDS011;61316;47.852;11.410;2022-09-09T11:17:26;2.20;;;1.10;;
73126;SDS011;61316;47.852;11.410;2022-09-09T11:19:50;2.00;;;1.00;;
73126;SDS011;61316;47.852;11.410;2022-09-09T11:22:27;1.30;;;1.00;;
73126;SDS011;61316;47.852;11.410;2022-09-09T11:24:59;2.60;;;0.93;;
73126;SDS011;61316;47.852;11.410;2022-09-09T11:27:31;0.90;;;0.70;;
73126;SDS011;61316;47.852;11.410;2022-09-09T11:30:10;1.05;;;0.80;;
73126;SDS011;61316;47.852;11.410;2022-09-09T11:42:34;0.70;;;0.60;;
73126;SDS011;61316;47.852;11.410;2022-09-09T11:45:19;0.75;;;0.60;;
73126;SDS011;61316;47.852;11.410;2022-09-09T11:47:55;1.10;;;0.70;;
73126;SDS011;61316;47.852;11.410;2022-09-09T11:52:47;0.77;;;0.70;;
73126;SDS011;61316;47.852;11.410;2022-09-09T11:58:01;0.70;;;0.55;;
73126;SDS011;61316;47.852;11.410;2022-09-09T12:00:37;0.65;;;0.50;;
73126;SDS011;61316;47.852;11.410;2022-09-09T12:03:02;1.50;;;0.60;;
73126;SDS011;61316;47.852;11.410;2022-09-09T12:05:44;1.58;;;0.50;;
73126;SDS011;61316;47.852;11.410;2022-09-09T12:08:10;3.17;;;0.50;;
73126;SDS011;61316;47.852;11.410;2022-09-09T12:10:38;0.60;;;0.50;;
73126;SDS011;61316;47.852;11.410;2022-09-09T12:13:15;1.15;;;0.68;;
73126;SDS011;61316;47.852;11.410;2022-09-09T12:15:48;0.95;;;0.57;;
73126;SDS011;61316;47.852;11.410;2022-09-09T12:18:14;1.42;;;0.80;;
73126;SDS011;61316;47.852;11.410;2022-09-09T12:20:41;0.60;;;0.55;;
73126;SDS011;61316;47.852;11.410;2022-09-09T12:23:18;0.97;;;0.60;;
73126;SDS011;61316;47.852;11.410;2022-09-09T12:26:05;1.38;;;0.70;;
73126;SDS011;61316;47.852;11.410;2022-09-09T12:33:42;1.60;;;0.80;;
73126;SDS011;61316;47.852;11.410;2022-09-09T12:36:11;2.00;;;0.90;;
73126;SDS011;61316;47.852;11.410;2022-09-09T12:38:39;2.05;;;0.98;;
73126;SDS011;61316;47.852;11.410;2022-09-09T12:41:05;1.63;;;0.70;;
73126;SDS011;61316;47.852;11.410;2022-09-09T12:43:31;1.23;;;0.60;;
73126;SDS011;61316;47.852;11.410;2022-09-09T12:46:00;1.50;;;0.70;;
73126;SDS011;61316;47.852;11.410;2022-09-09T12:48:32;1.33;;;0.60;;
73126;SDS011;61316;47.852;11.410;2022-09-09T12:50:58;1.85;;;0.70;;
73126;SDS011;61316;47.852;11.410;2022-09-09T12:53:25;1.15;;;0.60;;
73126;SDS011;61316;47.852;11.410;2022-09-09T12:55:52;0.90;;;0.40;;
73126;SDS011;61316;47.852;11.410;2022-09-09T12:58:19;0.63;;;0.40;;
73126;SDS011;61316;47.852;11.410;2022-09-09T13:00:49;0.80;;;0.40;;
73126;SDS011;61316;47.852;11.410;2022-09-09T13:03:19;1.00;;;0.50;;
73126;SDS011;61316;47.852;11.410;2022-09-09T13:05:45;1.42;;;0.40;;
73126;SDS011;61316;47.852;11.410;2022-09-09T13:08:12;1.20;;;0.50;;
73126;SDS011;61316;47.852;11.410;2022-09-09T13:10:40;0.43;;;0.40;;
73126;SDS011;61316;47.852;11.410;2022-09-09T13:13:13;1.50;;;0.60;;
73126;SDS011;61316;47.852;11.410;2022-09-09T13:15:39;1.10;;;0.68;;
73126;SDS011;61316;47.852;11.410;2022-09-09T13:18:05;2.60;;;0.60;;
73126;SDS011;61316;47.852;11.410;2022-09-09T13:20:31;1.52;;;0.60;;
73126;SDS011;61316;47.852;11.410;2022-09-09T13:22:56;1.40;;;0.50;;
73126;SDS011;61316;47.852;11.410;2022-09-09T13:25:28;1.15;;;0.45;;
73126;SDS011;61316;47.852;11.410;2022-09-09T13:28:01;2.75;;;0.70;;
73126;SDS011;61316;47.852;11.410;2022-09-09T13:30:37;1.90;;;0.70;;
73126;SDS011;61316;47.852;11.410;2022-09-09T13:35:47;0.63;;;0.50;;
73126;SDS011;61316;47.852;11.410;2022-09-09T13:38:14;1.20;;;0.60;;
73126;SDS011;61316;47.852;11.410;2022-09-09T13:40:39;1.73;;;0.60;;
73126;SDS011;61316;47.852;11.410;2022-09-09T13:43:04;2.97;;;0.80;;
73126;SDS011;61316;47.852;11.410;2022-09-09T13:45:30;1.85;;;0.60;;
73126;SDS011;61316;47.852;11.410;2022-09-09T13:47:55;1.40;;;0.70;;
73126;SDS011;61316;47.852;11.410;2022-09-09T13:50:22;0.90;;;0.80;;
73126;SDS011;61316;47.852;11.410;2022-09-09T13:52:48;1.47;;;0.60;;
73126;SDS011;61316;47.852;11.410;2022-09-09T13:55:15;1.50;;;0.70;;
73126;SDS011;61316;47.852;11.410;2022-09-09T13:57:49;1.20;;;0.60;;
73126;SDS011;61316;47.852;11.410;2022-09-09T14:00:15;0.73;;;0.52;;
73126;SDS011;61316;47.852;11.410;2022-09-09T14:02:40;2.95;;;0.50;;
73126;SDS011;61316;47.852;11.410;2022-09-09T14:05:05;1.37;;;0.50;;
73126;SDS011;61316;47.852;11.410;2022-09-09T14:07:31;1.00;;;0.60;;
73126;SDS011;61316;47.852;11.410;2022-09-09T14:09:57;1.52;;;0.80;;
73126;SDS011;61316;47.852;11.410;2022-09-09T14:12:22;1.17;;;0.50;;
73126;SDS011;61316;47.852;11.410;2022-09-09T14:14:47;0.90;;;0.60;;
73126;SDS011;61316;47.852;11.410;2022-09-09T14:17:13;1.53;;;0.60;;
73126;SDS011;61316;47.852;11.410;2022-09-09T14:19:39;1.75;;;0.50;;
73126;SDS011;61316;47.852;11.410;2022-09-09T14:22:04;2.07;;;0.60;;
73126;SDS011;61316;47.852;11.410;2022-09-09T14:24:29;1.30;;;0.50;;
73126;SDS011;61316;47.852;11.410;2022-09-09T14:26:54;2.07;;;0.60;;
73126;SDS011;61316;47.852;11.410;2022-09-09T14:29:20;2.30;;;0.60;;
73126;SDS011;61316;47.852;11.410;2022-09-09T14:31:45;1.97;;;0.77;;
73126;SDS011;61316;47.852;11.410;2022-09-09T14:34:10;1.53;;;0.50;;
73126;SDS011;61316;47.852;11.410;2022-09-09T14:36:36;1.73;;;0.50;;
73126;SDS011;61316;47.852;11.410;2022-09-09T14:39:01;1.87;;;0.70;;
73126;SDS011;61316;47.852;11.410;2022-09-09T14:41:26;1.50;;;0.60;;
73126;SDS011;61316;47.852;11.410;2022-09-09T14:43:51;2.00;;;0.60;;
73126;SDS011;61316;47.852;11.410;2022-09-09T14:46:17;1.60;;;0.60;;
73126;SDS011;61316;47.852;11.410;2022-09-09T14:48:43;1.92;;;0.60;;
73126;SDS011;61316;47.852;11.410;2022-09-09T14:51:10;1.20;;;0.50;;
73126;SDS011;61316;47.852;11.410;2022-09-09T14:53:35;1.15;;;0.60;;
73126;SDS011;61316;47.852;11.410;2022-09-09T14:56:08;1.43;;;0.70;;
73126;SDS011;61316;47.852;11.410;2022-09-09T14:58:33;3.33;;;0.80;;
73126;SDS011;61316;47.852;11.410;2022-09-09T15:01:03;1.48;;;0.90;;
73126;SDS011;61316;47.852;11.410;2022-09-09T15:03:29;2.03;;;0.90;;
73126;SDS011;61316;47.852;11.410;2022-09-09T15:05:54;2.87;;;1.00;;
73126;SDS011;61316;47.852;11.410;2022-09-09T15:08:19;1.50;;;0.70;;
73126;SDS011;61316;47.852;11.410;2022-09-09T15:10:44;1.07;;;0.80;;
73126;SDS011;61316;47.852;11.410;2022-09-09T15:13:10;2.37;;;0.70;;
73126;SDS011;61316;47.852;11.410;2022-09-09T15:15:35;1.88;;;0.80;;
73126;SDS011;61316;47.852;11.410;2022-09-09T15:18:00;2.10;;;0.80;;
73126;SDS011;61316;47.852;11.410;2022-09-09T15:20:25;2.83;;;0.80;;
73126;SDS011;61316;47.852;11.410;2022-09-09T15:22:50;1.37;;;0.70;;
73126;SDS011;61316;47.852;11.410;2022-09-09T15:25:17;0.65;;;0.50;;
73126;SDS011;61316;47.852;11.410;2022-09-09T15:27:42;2.20;;;0.70;;
73126;SDS011;61316;47.852;11.410;2022-09-09T15:30:09;1.45;;;0.75;;
73126;SDS011;61316;47.852;11.410;2022-09-09T15:32:34;1.50;;;0.50;;
73126;SDS011;61316;47.852;11.410;2022-09-09T15:35:00;1.55;;;0.65;;
73126;SDS011;61316;47.852;11.410;2022-09-09T15:37:26;0.73;;;0.60;;
73126;SDS011;61316;47.852;11.410;2022-09-09T15:39:51;1.93;;;0.60;;
73126;SDS011;61316;47.852;11.410;2022-09-09T15:42:16;4.13;;;0.83;;
73126;SDS011;61316;47.852;11.410;2022-09-09T15:44:41;1.87;;;0.60;;
73126;SDS011;61316;47.852;11.410;2022-09-09T15:47:07;1.27;;;0.70;;
73126;SDS011;61316;47.852;11.410;2022-09-09T15:49:32;1.60;;;0.70;;
73126;SDS011;61316;47.852;11.410;2022-09-09T15:51:58;1.87;;;0.80;;
73126;SDS011;61316;47.852;11.410;2022-09-09T15:54:28;7.50;;;1.10;;
73126;SDS011;61316;47.852;11.410;2022-09-09T15:56:58;1.90;;;0.80;;
73126;SDS011;61316;47.852;11.410;2022-09-09T15:59:23;2.07;;;0.90;;
73126;SDS011;61316;47.852;11.410;2022-09-09T16:01:49;1.83;;;0.80;;
73126;SDS011;61316;47.852;11.410;2022-09-09T16:04:16;2.33;;;0.90;;
73126;SDS011;61316;47.852;11.410;2022-09-09T16:06:47;1.67;;;0.80;;
73126;SDS011;61316;47.852;11.410;2022-09-09T16:09:13;1.90;;;0.90;;
73126;SDS011;61316;47.852;11.410;2022-09-09T16:11:38;1.60;;;0.80;;
73126;SDS011;61316;47.852;11.410;2022-09-09T16:14:04;1.42;;;0.80;;
73126;SDS011;61316;47.852;11.410;2022-09-09T16:16:30;2.58;;;0.80;;
73126;SDS011;61316;47.852;11.410;2022-09-09T16:18:59;3.60;;;0.80;;
73126;SDS011;61316;47.852;11.410;2022-09-09T16:21:25;1.90;;;0.80;;
73126;SDS011;61316;47.852;11.410;2022-09-09T16:23:52;1.55;;;0.80;;
73126;SDS011;61316;47.852;11.410;2022-09-09T16:26:18;3.00;;;0.85;;
73126;SDS011;61316;47.852;11.410;2022-09-09T16:28:43;1.40;;;0.80;;
73126;SDS011;61316;47.852;11.410;2022-09-09T16:31:12;4.03;;;1.00;;
73126;SDS011;61316;47.852;11.410;2022-09-09T16:33:38;4.60;;;1.00;;